This is the latest recevied weather packets stored in our database for station/object OE7BJT-13. If no packets are shown the sender has not sent any weather packets the latest 10 day(s).
| Time | Temp. | Humidity | Pressure | Rain* | Wind** | Luminosity | Snow |
|---|---|---|---|---|---|---|---|
| 1777954548 | 8.33° C | 86% | 1011 hPa | - | - | - | - |
| 1777953942 | 8.33° C | 84% | 1011 hPa | - | - | - | - |
| 1777953337 | 8.33° C | 86% | 1011 hPa | - | - | - | - |
| 1777952731 | 8.89° C | 82% | 1011 hPa | - | - | - | - |
| 1777952126 | 8.33° C | 85% | 1011 hPa | - | - | - | - |
| 1777951520 | 8.33° C | 85% | 1011 hPa | - | - | - | - |
| 1777950914 | 9.44° C | 79% | 1011 hPa | - | - | - | - |
| 1777950309 | 8.89° C | 83% | 1011 hPa | - | - | - | - |
| 1777949703 | 8.89° C | 81% | 1011 hPa | - | - | - | - |
| 1777949098 | 10° C | 76% | 1011 hPa | - | - | - | - |
| 1777948492 | 9.44° C | 79% | 1011 hPa | - | - | - | - |
| 1777947886 | 10° C | 77% | 1011 hPa | - | - | - | - |
| 1777947281 | 10° C | 77% | 1011 hPa | - | - | - | - |
| 1777946070 | 10° C | 76% | 1011 hPa | - | - | - | - |
| 1777945464 | 10.56° C | 73% | 1011 hPa | - | - | - | - |
| 1777944858 | 10.56° C | 74% | 1011 hPa | - | - | - | - |
| 1777944253 | 11.11° C | 73% | 1011 hPa | - | - | - | - |
| 1777943647 | 11.11° C | 73% | 1012 hPa | - | - | - | - |
| 1777943042 | 11.11° C | 72% | 1012 hPa | - | - | - | - |
| 1777942436 | 11.67° C | 72% | 1012 hPa | - | - | - | - |
| 1777941830 | 11.67° C | 68% | 1012 hPa | - | - | - | - |
| 1777941225 | 12.22° C | 67% | 1012 hPa | - | - | - | - |
| 1777940619 | 11.67° C | 71% | 1012 hPa | - | - | - | - |
| 1777939408 | 12.78° C | 68% | 1012 hPa | - | - | - | - |
| 1777938802 | 12.78° C | 67% | 1012 hPa | - | - | - | - |
* Rain since midnight (hover to see other rain measurements)
** Current wind speed in m/s (hover to see current wind gust speed)